sensor_id;sensor_type;location;lat;lon;timestamp;temperature;humidity
64396;DHT22;50717;53.360;6.290;2024-03-02T00:01:10;9.00;1.00
64396;DHT22;50717;53.360;6.290;2024-03-02T00:03:37;9.30;1.00
64396;DHT22;50717;53.360;6.290;2024-03-02T00:06:04;9.00;1.00
64396;DHT22;50717;53.360;6.290;2024-03-02T00:08:30;8.90;1.00
64396;DHT22;50717;53.360;6.290;2024-03-02T00:11:00;9.20;1.00
64396;DHT22;50717;53.360;6.290;2024-03-02T00:13:26;8.90;1.00
64396;DHT22;50717;53.360;6.290;2024-03-02T00:15:53;8.80;1.00
64396;DHT22;50717;53.360;6.290;2024-03-02T00:18:39;8.50;1.00
64396;DHT22;50717;53.360;6.290;2024-03-02T00:23:35;9.00;1.00
64396;DHT22;50717;53.360;6.290;2024-03-02T00:26:01;9.00;1.00
64396;DHT22;50717;53.360;6.290;2024-03-02T00:28:35;8.90;1.00
64396;DHT22;50717;53.360;6.290;2024-03-02T00:33:33;9.10;1.00
64396;DHT22;50717;53.360;6.290;2024-03-02T00:36:00;8.70;1.00
64396;DHT22;50717;53.360;6.290;2024-03-02T00:38:27;9.00;1.00
64396;DHT22;50717;53.360;6.290;2024-03-02T00:40:54;9.10;1.00
64396;DHT22;50717;53.360;6.290;2024-03-02T00:43:42;8.80;1.00
64396;DHT22;50717;53.360;6.290;2024-03-02T00:46:18;8.90;1.00
64396;DHT22;50717;53.360;6.290;2024-03-02T00:51:14;8.90;1.00
64396;DHT22;50717;53.360;6.290;2024-03-02T00:53:39;9.10;1.00
64396;DHT22;50717;53.360;6.290;2024-03-02T00:56:09;8.80;1.00
64396;DHT22;50717;53.360;6.290;2024-03-02T00:58:36;9.00;1.00
64396;DHT22;50717;53.360;6.290;2024-03-02T01:01:02;9.00;1.00
64396;DHT22;50717;53.360;6.290;2024-03-02T01:03:27;9.00;1.00
64396;DHT22;50717;53.360;6.290;2024-03-02T01:05:53;8.70;1.00
64396;DHT22;50717;53.360;6.290;2024-03-02T01:08:19;9.00;1.00
64396;DHT22;50717;53.360;6.290;2024-03-02T01:10:44;9.10;1.00
64396;DHT22;50717;53.360;6.290;2024-03-02T01:13:10;8.80;1.00
64396;DHT22;50717;53.360;6.290;2024-03-02T01:15:36;9.20;1.00
64396;DHT22;50717;53.360;6.290;2024-03-02T01:18:02;8.90;1.00
64396;DHT22;50717;53.360;6.290;2024-03-02T01:20:27;9.20;1.00
64396;DHT22;50717;53.360;6.290;2024-03-02T01:22:53;9.30;1.00
64396;DHT22;50717;53.360;6.290;2024-03-02T01:25:19;9.30;1.00
64396;DHT22;50717;53.360;6.290;2024-03-02T01:27:44;9.10;1.00
64396;DHT22;50717;53.360;6.290;2024-03-02T01:30:10;9.10;1.00
64396;DHT22;50717;53.360;6.290;2024-03-02T01:32:39;8.80;1.00
64396;DHT22;50717;53.360;6.290;2024-03-02T01:35:06;9.40;1.00
64396;DHT22;50717;53.360;6.290;2024-03-02T01:37:33;8.80;1.00
64396;DHT22;50717;53.360;6.290;2024-03-02T01:39:59;9.30;1.00
64396;DHT22;50717;53.360;6.290;2024-03-02T01:42:25;9.30;1.00
64396;DHT22;50717;53.360;6.290;2024-03-02T01:47:17;8.90;1.00
64396;DHT22;50717;53.360;6.290;2024-03-02T01:49:43;8.70;1.00
64396;DHT22;50717;53.360;6.290;2024-03-02T01:52:09;8.90;1.00
64396;DHT22;50717;53.360;6.290;2024-03-02T01:54:34;9.10;1.00
64396;DHT22;50717;53.360;6.290;2024-03-02T01:57:00;9.00;1.00
64396;DHT22;50717;53.360;6.290;2024-03-02T01:59:26;9.10;1.00
64396;DHT22;50717;53.360;6.290;2024-03-02T02:01:52;9.20;1.00
64396;DHT22;50717;53.360;6.290;2024-03-02T02:04:18;9.20;1.00
64396;DHT22;50717;53.360;6.290;2024-03-02T02:06:47;9.20;1.00
64396;DHT22;50717;53.360;6.290;2024-03-02T02:09:12;9.40;1.00
64396;DHT22;50717;53.360;6.290;2024-03-02T02:11:38;9.00;1.00
64396;DHT22;50717;53.360;6.290;2024-03-02T02:14:04;9.00;1.00
64396;DHT22;50717;53.360;6.290;2024-03-02T02:16:31;9.40;1.00
64396;DHT22;50717;53.360;6.290;2024-03-02T02:18:57;9.10;1.00
64396;DHT22;50717;53.360;6.290;2024-03-02T02:21:23;9.10;1.00
64396;DHT22;50717;53.360;6.290;2024-03-02T02:23:48;9.40;1.00
64396;DHT22;50717;53.360;6.290;2024-03-02T02:26:15;9.10;1.00
64396;DHT22;50717;53.360;6.290;2024-03-02T02:28:41;9.00;1.00
64396;DHT22;50717;53.360;6.290;2024-03-02T02:31:14;9.30;1.00
64396;DHT22;50717;53.360;6.290;2024-03-02T02:33:40;9.30;1.00
64396;DHT22;50717;53.360;6.290;2024-03-02T02:36:06;9.80;1.00
64396;DHT22;50717;53.360;6.290;2024-03-02T02:38:38;8.90;1.00
64396;DHT22;50717;53.360;6.290;2024-03-02T02:41:04;9.30;1.00
64396;DHT22;50717;53.360;6.290;2024-03-02T02:43:30;9.20;1.00
64396;DHT22;50717;53.360;6.290;2024-03-02T02:45:55;9.10;1.00
64396;DHT22;50717;53.360;6.290;2024-03-02T02:48:21;9.10;1.00
64396;DHT22;50717;53.360;6.290;2024-03-02T02:50:46;9.30;1.00
64396;DHT22;50717;53.360;6.290;2024-03-02T02:53:15;9.10;1.00
64396;DHT22;50717;53.360;6.290;2024-03-02T02:55:41;9.20;1.00
64396;DHT22;50717;53.360;6.290;2024-03-02T02:58:09;9.60;1.00
64396;DHT22;50717;53.360;6.290;2024-03-02T03:00:35;9.50;1.00
64396;DHT22;50717;53.360;6.290;2024-03-02T03:03:02;9.20;1.00
64396;DHT22;50717;53.360;6.290;2024-03-02T03:05:28;9.20;1.00
64396;DHT22;50717;53.360;6.290;2024-03-02T03:07:53;9.30;1.00
64396;DHT22;50717;53.360;6.290;2024-03-02T03:10:19;9.20;1.00
64396;DHT22;50717;53.360;6.290;2024-03-02T03:12:47;9.30;1.00
64396;DHT22;50717;53.360;6.290;2024-03-02T03:15:13;9.50;1.00
64396;DHT22;50717;53.360;6.290;2024-03-02T03:17:40;9.30;1.00
64396;DHT22;50717;53.360;6.290;2024-03-02T03:20:07;9.50;1.00
64396;DHT22;50717;53.360;6.290;2024-03-02T03:22:36;9.50;1.00
64396;DHT22;50717;53.360;6.290;2024-03-02T03:25:01;9.10;1.00
64396;DHT22;50717;53.360;6.290;2024-03-02T03:27:29;8.90;1.00
64396;DHT22;50717;53.360;6.290;2024-03-02T03:29:54;9.30;1.00
64396;DHT22;50717;53.360;6.290;2024-03-02T03:32:20;9.30;1.00
64396;DHT22;50717;53.360;6.290;2024-03-02T03:34:46;9.30;1.00
64396;DHT22;50717;53.360;6.290;2024-03-02T03:37:13;9.10;1.00
64396;DHT22;50717;53.360;6.290;2024-03-02T03:39:39;9.00;1.00
64396;DHT22;50717;53.360;6.290;2024-03-02T03:42:04;9.00;1.00
64396;DHT22;50717;53.360;6.290;2024-03-02T03:44:30;8.90;1.00
64396;DHT22;50717;53.360;6.290;2024-03-02T03:46:56;8.70;1.00
64396;DHT22;50717;53.360;6.290;2024-03-02T03:49:21;8.70;1.00
64396;DHT22;50717;53.360;6.290;2024-03-02T03:51:47;8.40;1.00
64396;DHT22;50717;53.360;6.290;2024-03-02T03:54:13;8.40;1.00
64396;DHT22;50717;53.360;6.290;2024-03-02T03:56:39;8.30;1.00
64396;DHT22;50717;53.360;6.290;2024-03-02T03:59:04;8.50;1.00
64396;DHT22;50717;53.360;6.290;2024-03-02T04:01:30;8.50;1.00
64396;DHT22;50717;53.360;6.290;2024-03-02T04:03:57;8.40;1.00
64396;DHT22;50717;53.360;6.290;2024-03-02T04:06:23;8.50;1.00
64396;DHT22;50717;53.360;6.290;2024-03-02T04:08:49;8.80;1.00
64396;DHT22;50717;53.360;6.290;2024-03-02T04:11:15;8.70;1.00
64396;DHT22;50717;53.360;6.290;2024-03-02T04:13:40;8.70;1.00
64396;DHT22;50717;53.360;6.290;2024-03-02T04:16:06;8.30;1.00
64396;DHT22;50717;53.360;6.290;2024-03-02T04:18:32;8.70;1.00
64396;DHT22;50717;53.360;6.290;2024-03-02T04:20:58;8.60;1.00
64396;DHT22;50717;53.360;6.290;2024-03-02T04:23:25;8.80;1.00
64396;DHT22;50717;53.360;6.290;2024-03-02T04:25:51;8.80;1.00
64396;DHT22;50717;53.360;6.290;2024-03-02T04:28:17;8.30;1.00
64396;DHT22;50717;53.360;6.290;2024-03-02T04:30:42;8.80;1.00
64396;DHT22;50717;53.360;6.290;2024-03-02T04:33:08;8.40;1.00
64396;DHT22;50717;53.360;6.290;2024-03-02T04:35:36;8.50;1.00
64396;DHT22;50717;53.360;6.290;2024-03-02T04:38:02;8.80;1.00
64396;DHT22;50717;53.360;6.290;2024-03-02T04:40:27;8.60;1.00
64396;DHT22;50717;53.360;6.290;2024-03-02T04:42:53;8.50;1.00
64396;DHT22;50717;53.360;6.290;2024-03-02T04:45:19;8.60;1.00
64396;DHT22;50717;53.360;6.290;2024-03-02T04:47:45;8.40;1.00
64396;DHT22;50717;53.360;6.290;2024-03-02T04:50:10;8.60;1.00
64396;DHT22;50717;53.360;6.290;2024-03-02T04:55:03;8.40;1.00
64396;DHT22;50717;53.360;6.290;2024-03-02T04:57:35;8.40;1.00
64396;DHT22;50717;53.360;6.290;2024-03-02T05:00:01;8.40;2.50
64396;DHT22;50717;53.360;6.290;2024-03-02T05:02:26;8.40;1.00
64396;DHT22;50717;53.360;6.290;2024-03-02T05:04:52;8.60;1.90
64396;DHT22;50717;53.360;6.290;2024-03-02T05:07:18;8.80;1.90
64396;DHT22;50717;53.360;6.290;2024-03-02T05:09:43;8.60;1.70
64396;DHT22;50717;53.360;6.290;2024-03-02T05:12:10;8.50;1.00
64396;DHT22;50717;53.360;6.290;2024-03-02T05:14:54;8.50;1.00
64396;DHT22;50717;53.360;6.290;2024-03-02T05:17:19;8.90;1.00
64396;DHT22;50717;53.360;6.290;2024-03-02T05:19:45;8.80;1.00
64396;DHT22;50717;53.360;6.290;2024-03-02T05:22:11;8.80;1.00
64396;DHT22;50717;53.360;6.290;2024-03-02T05:24:36;8.90;1.00
64396;DHT22;50717;53.360;6.290;2024-03-02T05:27:02;8.70;1.00
64396;DHT22;50717;53.360;6.290;2024-03-02T05:29:28;8.70;1.00
64396;DHT22;50717;53.360;6.290;2024-03-02T05:31:53;8.70;1.00
64396;DHT22;50717;53.360;6.290;2024-03-02T05:34:19;8.50;1.00
64396;DHT22;50717;53.360;6.290;2024-03-02T05:36:44;8.70;1.00
64396;DHT22;50717;53.360;6.290;2024-03-02T05:39:10;8.70;1.00
64396;DHT22;50717;53.360;6.290;2024-03-02T05:41:36;8.70;1.00
64396;DHT22;50717;53.360;6.290;2024-03-02T05:44:04;8.70;2.80
64396;DHT22;50717;53.360;6.290;2024-03-02T05:46:29;8.60;1.80
64396;DHT22;50717;53.360;6.290;2024-03-02T05:48:55;9.00;2.10
64396;DHT22;50717;53.360;6.290;2024-03-02T05:51:20;8.80;1.00
64396;DHT22;50717;53.360;6.290;2024-03-02T05:53:46;9.10;1.00
64396;DHT22;50717;53.360;6.290;2024-03-02T05:56:12;8.90;1.00
64396;DHT22;50717;53.360;6.290;2024-03-02T05:58:38;8.90;4.00
64396;DHT22;50717;53.360;6.290;2024-03-02T06:01:19;8.80;6.50
64396;DHT22;50717;53.360;6.290;2024-03-02T06:03:44;8.80;7.10
64396;DHT22;50717;53.360;6.290;2024-03-02T06:06:10;8.70;7.50
64396;DHT22;50717;53.360;6.290;2024-03-02T06:08:36;8.80;5.40
64396;DHT22;50717;53.360;6.290;2024-03-02T06:11:02;8.60;6.80
64396;DHT22;50717;53.360;6.290;2024-03-02T06:13:27;9.10;7.30
64396;DHT22;50717;53.360;6.290;2024-03-02T06:15:53;8.60;10.40
64396;DHT22;50717;53.360;6.290;2024-03-02T06:18:19;8.40;8.60
64396;DHT22;50717;53.360;6.290;2024-03-02T06:20:44;8.40;10.40
64396;DHT22;50717;53.360;6.290;2024-03-02T06:23:10;8.60;9.90
64396;DHT22;50717;53.360;6.290;2024-03-02T06:25:36;8.70;11.50
64396;DHT22;50717;53.360;6.290;2024-03-02T06:28:01;8.60;11.30
64396;DHT22;50717;53.360;6.290;2024-03-02T06:30:27;8.50;11.90
64396;DHT22;50717;53.360;6.290;2024-03-02T06:32:53;8.80;10.00
64396;DHT22;50717;53.360;6.290;2024-03-02T06:35:19;8.40;13.00
64396;DHT22;50717;53.360;6.290;2024-03-02T06:37:45;8.60;13.30
64396;DHT22;50717;53.360;6.290;2024-03-02T06:40:10;8.30;17.20
64396;DHT22;50717;53.360;6.290;2024-03-02T06:42:36;8.60;19.80
64396;DHT22;50717;53.360;6.290;2024-03-02T06:45:03;8.10;20.70
64396;DHT22;50717;53.360;6.290;2024-03-02T06:47:29;8.20;25.60
64396;DHT22;50717;53.360;6.290;2024-03-02T06:49:55;8.00;29.30
64396;DHT22;50717;53.360;6.290;2024-03-02T06:52:20;7.80;32.70
64396;DHT22;50717;53.360;6.290;2024-03-02T06:54:46;8.20;33.90
64396;DHT22;50717;53.360;6.290;2024-03-02T06:57:12;8.00;35.30
64396;DHT22;50717;53.360;6.290;2024-03-02T06:59:37;8.00;33.90
64396;DHT22;50717;53.360;6.290;2024-03-02T07:02:03;8.00;31.80
64396;DHT22;50717;53.360;6.290;2024-03-02T07:04:29;8.30;32.80
64396;DHT22;50717;53.360;6.290;2024-03-02T07:09:21;8.30;34.30
64396;DHT22;50717;53.360;6.290;2024-03-02T07:11:48;7.90;30.50
64396;DHT22;50717;53.360;6.290;2024-03-02T07:14:16;8.10;25.90
64396;DHT22;50717;53.360;6.290;2024-03-02T07:16:41;7.80;24.70
64396;DHT22;50717;53.360;6.290;2024-03-02T07:19:08;8.00;26.20
64396;DHT22;50717;53.360;6.290;2024-03-02T07:21:34;8.10;27.10
64396;DHT22;50717;53.360;6.290;2024-03-02T07:24:00;7.90;29.10
64396;DHT22;50717;53.360;6.290;2024-03-02T07:26:29;7.90;30.10
64396;DHT22;50717;53.360;6.290;2024-03-02T07:28:56;7.70;34.50
64396;DHT22;50717;53.360;6.290;2024-03-02T07:31:22;8.20;37.90
64396;DHT22;50717;53.360;6.290;2024-03-02T07:33:48;7.70;38.90
64396;DHT22;50717;53.360;6.290;2024-03-02T07:36:14;8.00;37.70
64396;DHT22;50717;53.360;6.290;2024-03-02T07:38:40;8.00;36.30
64396;DHT22;50717;53.360;6.290;2024-03-02T07:41:07;8.10;35.80
64396;DHT22;50717;53.360;6.290;2024-03-02T07:43:33;8.10;35.70
64396;DHT22;50717;53.360;6.290;2024-03-02T07:45:59;8.20;35.90
64396;DHT22;50717;53.360;6.290;2024-03-02T07:48:25;7.90;33.90
64396;DHT22;50717;53.360;6.290;2024-03-02T07:50:51;8.30;34.60
64396;DHT22;50717;53.360;6.290;2024-03-02T07:53:16;8.20;38.30
64396;DHT22;50717;53.360;6.290;2024-03-02T07:55:42;8.30;38.10
64396;DHT22;50717;53.360;6.290;2024-03-02T07:58:08;8.40;35.90
64396;DHT22;50717;53.360;6.290;2024-03-02T08:00:34;8.80;38.50
64396;DHT22;50717;53.360;6.290;2024-03-02T08:03:01;8.70;29.60
64396;DHT22;50717;53.360;6.290;2024-03-02T08:05:26;8.80;24.90
64396;DHT22;50717;53.360;6.290;2024-03-02T08:07:53;8.80;16.50
64396;DHT22;50717;53.360;6.290;2024-03-02T08:10:19;9.10;13.90
64396;DHT22;50717;53.360;6.290;2024-03-02T08:15:11;9.00;9.80
64396;DHT22;50717;53.360;6.290;2024-03-02T08:17:39;8.70;9.50
64396;DHT22;50717;53.360;6.290;2024-03-02T08:20:11;9.20;8.30
64396;DHT22;50717;53.360;6.290;2024-03-02T08:22:38;8.80;8.80
64396;DHT22;50717;53.360;6.290;2024-03-02T08:25:04;8.90;8.10
64396;DHT22;50717;53.360;6.290;2024-03-02T08:27:31;9.00;9.40
64396;DHT22;50717;53.360;6.290;2024-03-02T08:29:57;9.00;3.20
64396;DHT22;50717;53.360;6.290;2024-03-02T08:32:23;9.10;8.20
64396;DHT22;50717;53.360;6.290;2024-03-02T08:34:48;8.90;8.10
64396;DHT22;50717;53.360;6.290;2024-03-02T08:37:14;9.20;1.00
64396;DHT22;50717;53.360;6.290;2024-03-02T08:39:40;9.40;1.00
64396;DHT22;50717;53.360;6.290;2024-03-02T08:42:06;9.70;1.00
64396;DHT22;50717;53.360;6.290;2024-03-02T08:44:31;9.60;1.00
64396;DHT22;50717;53.360;6.290;2024-03-02T08:46:59;9.50;1.00
64396;DHT22;50717;53.360;6.290;2024-03-02T08:49:24;9.20;1.00
64396;DHT22;50717;53.360;6.290;2024-03-02T08:51:50;9.60;1.00
64396;DHT22;50717;53.360;6.290;2024-03-02T08:54:21;9.60;1.00
64396;DHT22;50717;53.360;6.290;2024-03-02T08:56:48;9.90;4.30
64396;DHT22;50717;53.360;6.290;2024-03-02T08:59:14;10.10;1.00
64396;DHT22;50717;53.360;6.290;2024-03-02T09:01:40;9.90;1.00
64396;DHT22;50717;53.360;6.290;2024-03-02T09:04:07;9.90;1.00
64396;DHT22;50717;53.360;6.290;2024-03-02T09:06:36;10.00;1.00
64396;DHT22;50717;53.360;6.290;2024-03-02T09:09:02;9.90;1.00
64396;DHT22;50717;53.360;6.290;2024-03-02T09:11:28;10.50;1.00
64396;DHT22;50717;53.360;6.290;2024-03-02T09:13:54;10.10;1.00
64396;DHT22;50717;53.360;6.290;2024-03-02T09:16:21;10.40;1.00
64396;DHT22;50717;53.360;6.290;2024-03-02T09:18:47;10.20;1.00
64396;DHT22;50717;53.360;6.290;2024-03-02T09:21:12;10.40;1.00
64396;DHT22;50717;53.360;6.290;2024-03-02T09:23:38;10.60;1.00
64396;DHT22;50717;53.360;6.290;2024-03-02T09:26:05;10.20;1.00
64396;DHT22;50717;53.360;6.290;2024-03-02T09:28:31;10.10;1.00
64396;DHT22;50717;53.360;6.290;2024-03-02T09:30:56;10.40;1.00
64396;DHT22;50717;53.360;6.290;2024-03-02T09:33:22;10.40;1.00
64396;DHT22;50717;53.360;6.290;2024-03-02T09:35:53;10.50;1.00
64396;DHT22;50717;53.360;6.290;2024-03-02T09:38:19;10.30;1.00
64396;DHT22;50717;53.360;6.290;2024-03-02T09:40:45;10.70;1.00
64396;DHT22;50717;53.360;6.290;2024-03-02T09:43:11;10.60;1.00
64396;DHT22;50717;53.360;6.290;2024-03-02T09:45:36;10.70;1.00
64396;DHT22;50717;53.360;6.290;2024-03-02T09:48:02;10.80;1.00
64396;DHT22;50717;53.360;6.290;2024-03-02T09:50:34;10.60;1.00
64396;DHT22;50717;53.360;6.290;2024-03-02T09:52:59;11.00;1.00
64396;DHT22;50717;53.360;6.290;2024-03-02T09:55:25;10.50;1.00
64396;DHT22;50717;53.360;6.290;2024-03-02T09:57:51;11.20;1.00
64396;DHT22;50717;53.360;6.290;2024-03-02T10:00:17;11.00;1.00
64396;DHT22;50717;53.360;6.290;2024-03-02T10:02:43;11.60;1.00
64396;DHT22;50717;53.360;6.290;2024-03-02T10:05:09;11.40;1.00
64396;DHT22;50717;53.360;6.290;2024-03-02T10:07:35;11.60;1.00
64396;DHT22;50717;53.360;6.290;2024-03-02T10:10:13;11.40;1.00
64396;DHT22;50717;53.360;6.290;2024-03-02T10:12:39;11.60;1.00
64396;DHT22;50717;53.360;6.290;2024-03-02T10:15:05;11.60;1.00
64396;DHT22;50717;53.360;6.290;2024-03-02T10:17:32;11.80;1.00
64396;DHT22;50717;53.360;6.290;2024-03-02T10:19:57;11.00;1.00
64396;DHT22;50717;53.360;6.290;2024-03-02T10:22:23;11.00;1.00
64396;DHT22;50717;53.360;6.290;2024-03-02T10:24:49;11.20;1.00
64396;DHT22;50717;53.360;6.290;2024-03-02T10:27:16;11.60;1.00
64396;DHT22;50717;53.360;6.290;2024-03-02T10:29:42;11.40;1.00
64396;DHT22;50717;53.360;6.290;2024-03-02T10:32:10;11.90;1.00
64396;DHT22;50717;53.360;6.290;2024-03-02T10:34:38;12.00;1.00
64396;DHT22;50717;53.360;6.290;2024-03-02T10:37:06;12.10;1.00
64396;DHT22;50717;53.360;6.290;2024-03-02T10:39:34;11.70;1.00
64396;DHT22;50717;53.360;6.290;2024-03-02T10:42:02;11.90;1.00
64396;DHT22;50717;53.360;6.290;2024-03-02T10:44:30;11.50;1.00
64396;DHT22;50717;53.360;6.290;2024-03-02T10:46:57;11.60;1.00
64396;DHT22;50717;53.360;6.290;2024-03-02T10:49:26;11.90;1.00
64396;DHT22;50717;53.360;6.290;2024-03-02T10:51:54;11.90;99.90
64396;DHT22;50717;53.360;6.290;2024-03-02T10:54:20;12.10;99.90
64396;DHT22;50717;53.360;6.290;2024-03-02T10:56:53;12.10;1.00
64396;DHT22;50717;53.360;6.290;2024-03-02T11:01:57;12.40;1.00
64396;DHT22;50717;53.360;6.290;2024-03-02T11:04:25;12.60;1.00
64396;DHT22;50717;53.360;6.290;2024-03-02T11:06:51;12.80;99.90
64396;DHT22;50717;53.360;6.290;2024-03-02T11:09:20;12.90;99.90
64396;DHT22;50717;53.360;6.290;2024-03-02T11:11:52;13.00;99.90
64396;DHT22;50717;53.360;6.290;2024-03-02T11:14:24;12.90;99.90
64396;DHT22;50717;53.360;6.290;2024-03-02T11:16:51;13.00;99.90
64396;DHT22;50717;53.360;6.290;2024-03-02T11:19:18;12.90;1.00
64396;DHT22;50717;53.360;6.290;2024-03-02T11:21:44;12.90;99.90
64396;DHT22;50717;53.360;6.290;2024-03-02T11:24:29;12.40;99.90
64396;DHT22;50717;53.360;6.290;2024-03-02T11:27:02;12.60;99.90
64396;DHT22;50717;53.360;6.290;2024-03-02T11:34:41;12.50;99.90
64396;DHT22;50717;53.360;6.290;2024-03-02T11:37:11;13.00;99.90
64396;DHT22;50717;53.360;6.290;2024-03-02T11:39:38;13.00;99.90
64396;DHT22;50717;53.360;6.290;2024-03-02T11:42:06;13.00;99.90
64396;DHT22;50717;53.360;6.290;2024-03-02T11:44:35;13.40;99.90
64396;DHT22;50717;53.360;6.290;2024-03-02T11:47:05;11.80;99.90
64396;DHT22;50717;53.360;6.290;2024-03-02T11:49:42;12.90;99.90
64396;DHT22;50717;53.360;6.290;2024-03-02T11:52:08;13.20;99.90
64396;DHT22;50717;53.360;6.290;2024-03-02T11:54:36;13.20;99.90
64396;DHT22;50717;53.360;6.290;2024-03-02T11:57:03;12.80;99.90
64396;DHT22;50717;53.360;6.290;2024-03-02T11:59:29;12.70;99.90
64396;DHT22;50717;53.360;6.290;2024-03-02T12:01:55;13.10;99.90
64396;DHT22;50717;53.360;6.290;2024-03-02T12:04:25;13.20;99.90
64396;DHT22;50717;53.360;6.290;2024-03-02T12:06:59;13.10;99.90
64396;DHT22;50717;53.360;6.290;2024-03-02T12:09:26;13.10;99.90
64396;DHT22;50717;53.360;6.290;2024-03-02T12:12:09;13.00;99.90
64396;DHT22;50717;53.360;6.290;2024-03-02T12:14:36;13.00;99.90
64396;DHT22;50717;53.360;6.290;2024-03-02T12:17:03;12.80;99.90
64396;DHT22;50717;53.360;6.290;2024-03-02T12:19:31;12.70;99.90
64396;DHT22;50717;53.360;6.290;2024-03-02T12:21:57;12.70;99.90
64396;DHT22;50717;53.360;6.290;2024-03-02T12:24:23;13.10;99.90
64396;DHT22;50717;53.360;6.290;2024-03-02T12:26:50;13.30;99.90
64396;DHT22;50717;53.360;6.290;2024-03-02T12:29:16;13.20;99.90
64396;DHT22;50717;53.360;6.290;2024-03-02T12:31:43;13.50;99.90
64396;DHT22;50717;53.360;6.290;2024-03-02T12:34:16;13.40;99.90
64396;DHT22;50717;53.360;6.290;2024-03-02T12:36:42;13.70;99.90
64396;DHT22;50717;53.360;6.290;2024-03-02T12:39:14;13.20;99.90
64396;DHT22;50717;53.360;6.290;2024-03-02T12:41:40;13.10;99.90
64396;DHT22;50717;53.360;6.290;2024-03-02T12:44:06;13.10;99.90
64396;DHT22;50717;53.360;6.290;2024-03-02T12:46:32;13.10;99.90
64396;DHT22;50717;53.360;6.290;2024-03-02T12:48:58;13.00;99.90
64396;DHT22;50717;53.360;6.290;2024-03-02T12:51:24;13.00;99.90
64396;DHT22;50717;53.360;6.290;2024-03-02T12:54:00;13.40;99.90
64396;DHT22;50717;53.360;6.290;2024-03-02T12:56:26;13.80;99.90
64396;DHT22;50717;53.360;6.290;2024-03-02T12:58:55;13.50;99.90
64396;DHT22;50717;53.360;6.290;2024-03-02T13:01:21;13.90;99.90
64396;DHT22;50717;53.360;6.290;2024-03-02T13:03:50;14.00;99.90
64396;DHT22;50717;53.360;6.290;2024-03-02T13:06:21;14.00;99.90
64396;DHT22;50717;53.360;6.290;2024-03-02T13:08:47;14.50;99.90
64396;DHT22;50717;53.360;6.290;2024-03-02T13:11:14;14.40;99.90
64396;DHT22;50717;53.360;6.290;2024-03-02T13:13:41;14.30;99.90
64396;DHT22;50717;53.360;6.290;2024-03-02T13:16:10;14.30;99.90
64396;DHT22;50717;53.360;6.290;2024-03-02T13:18:36;14.00;99.90
64396;DHT22;50717;53.360;6.290;2024-03-02T13:21:03;14.10;99.90
64396;DHT22;50717;53.360;6.290;2024-03-02T13:23:29;14.30;99.90
64396;DHT22;50717;53.360;6.290;2024-03-02T13:25:57;14.00;99.90
64396;DHT22;50717;53.360;6.290;2024-03-02T13:28:27;14.30;99.90
64396;DHT22;50717;53.360;6.290;2024-03-02T13:30:53;14.30;99.90
64396;DHT22;50717;53.360;6.290;2024-03-02T13:33:18;14.20;99.90
64396;DHT22;50717;53.360;6.290;2024-03-02T13:35:54;14.40;99.90
64396;DHT22;50717;53.360;6.290;2024-03-02T13:38:20;14.80;99.90
64396;DHT22;50717;53.360;6.290;2024-03-02T13:40:48;14.50;99.90
64396;DHT22;50717;53.360;6.290;2024-03-02T13:43:17;14.90;99.90
64396;DHT22;50717;53.360;6.290;2024-03-02T13:45:43;14.80;99.90
64396;DHT22;50717;53.360;6.290;2024-03-02T13:48:08;15.00;99.90
64396;DHT22;50717;53.360;6.290;2024-03-02T13:50:34;14.80;99.90
64396;DHT22;50717;53.360;6.290;2024-03-02T13:53:00;14.60;99.90
64396;DHT22;50717;53.360;6.290;2024-03-02T13:55:26;14.50;99.90
64396;DHT22;50717;53.360;6.290;2024-03-02T13:57:51;14.40;99.90
64396;DHT22;50717;53.360;6.290;2024-03-02T14:00:17;13.90;99.90
64396;DHT22;50717;53.360;6.290;2024-03-02T14:02:45;13.70;99.90
64396;DHT22;50717;53.360;6.290;2024-03-02T14:05:11;13.90;99.90
64396;DHT22;50717;53.360;6.290;2024-03-02T14:07:37;13.50;99.90
64396;DHT22;50717;53.360;6.290;2024-03-02T14:10:04;13.40;99.90
64396;DHT22;50717;53.360;6.290;2024-03-02T14:12:29;13.30;99.90
64396;DHT22;50717;53.360;6.290;2024-03-02T14:14:56;13.20;99.90
64396;DHT22;50717;53.360;6.290;2024-03-02T14:17:24;13.40;99.90
64396;DHT22;50717;53.360;6.290;2024-03-02T14:19:50;13.00;99.90
64396;DHT22;50717;53.360;6.290;2024-03-02T14:22:17;13.30;99.90
64396;DHT22;50717;53.360;6.290;2024-03-02T14:24:44;13.10;99.90
64396;DHT22;50717;53.360;6.290;2024-03-02T14:27:10;13.30;99.90
64396;DHT22;50717;53.360;6.290;2024-03-02T14:29:35;13.10;99.90
64396;DHT22;50717;53.360;6.290;2024-03-02T14:32:03;13.20;99.90
64396;DHT22;50717;53.360;6.290;2024-03-02T14:34:29;13.00;99.90
64396;DHT22;50717;53.360;6.290;2024-03-02T14:36:55;13.20;99.90
64396;DHT22;50717;53.360;6.290;2024-03-02T14:39:21;13.40;99.90
64396;DHT22;50717;53.360;6.290;2024-03-02T14:41:46;13.30;99.90
64396;DHT22;50717;53.360;6.290;2024-03-02T14:44:12;13.30;99.90
64396;DHT22;50717;53.360;6.290;2024-03-02T14:46:38;13.10;99.90
64396;DHT22;50717;53.360;6.290;2024-03-02T14:49:04;13.50;99.90
64396;DHT22;50717;53.360;6.290;2024-03-02T14:51:30;13.60;99.90
64396;DHT22;50717;53.360;6.290;2024-03-02T14:53:56;13.80;99.90
64396;DHT22;50717;53.360;6.290;2024-03-02T14:56:21;13.90;99.90
64396;DHT22;50717;53.360;6.290;2024-03-02T14:58:47;13.90;99.90
64396;DHT22;50717;53.360;6.290;2024-03-02T15:01:13;13.90;99.90
64396;DHT22;50717;53.360;6.290;2024-03-02T15:03:40;14.20;99.90
64396;DHT22;50717;53.360;6.290;2024-03-02T15:06:05;14.10;99.90
64396;DHT22;50717;53.360;6.290;2024-03-02T15:08:33;13.90;99.90
64396;DHT22;50717;53.360;6.290;2024-03-02T15:10:59;13.80;99.90
64396;DHT22;50717;53.360;6.290;2024-03-02T15:13:25;13.60;99.90
64396;DHT22;50717;53.360;6.290;2024-03-02T15:15:52;13.70;99.90
64396;DHT22;50717;53.360;6.290;2024-03-02T15:18:18;13.80;99.90
64396;DHT22;50717;53.360;6.290;2024-03-02T15:20:43;13.50;99.90
64396;DHT22;50717;53.360;6.290;2024-03-02T15:23:09;13.40;99.90
64396;DHT22;50717;53.360;6.290;2024-03-02T15:25:35;13.70;99.90
64396;DHT22;50717;53.360;6.290;2024-03-02T15:28:00;13.40;99.90
64396;DHT22;50717;53.360;6.290;2024-03-02T15:30:26;13.50;99.90
64396;DHT22;50717;53.360;6.290;2024-03-02T15:32:52;13.60;99.90
64396;DHT22;50717;53.360;6.290;2024-03-02T15:35:17;13.20;99.90
64396;DHT22;50717;53.360;6.290;2024-03-02T15:37:43;13.70;99.90
64396;DHT22;50717;53.360;6.290;2024-03-02T15:40:09;13.50;99.90
64396;DHT22;50717;53.360;6.290;2024-03-02T15:42:35;13.50;99.90
64396;DHT22;50717;53.360;6.290;2024-03-02T15:45:01;13.40;99.90
64396;DHT22;50717;53.360;6.290;2024-03-02T15:47:27;13.60;99.90
64396;DHT22;50717;53.360;6.290;2024-03-02T15:49:53;13.20;99.90
64396;DHT22;50717;53.360;6.290;2024-03-02T15:52:19;13.40;99.90
64396;DHT22;50717;53.360;6.290;2024-03-02T15:54:45;13.40;99.90
64396;DHT22;50717;53.360;6.290;2024-03-02T15:57:12;13.30;99.90
64396;DHT22;50717;53.360;6.290;2024-03-02T15:59:38;13.20;99.90
64396;DHT22;50717;53.360;6.290;2024-03-02T16:02:03;13.30;99.90
64396;DHT22;50717;53.360;6.290;2024-03-02T16:04:29;13.40;99.90
64396;DHT22;50717;53.360;6.290;2024-03-02T16:06:55;13.10;99.90
64396;DHT22;50717;53.360;6.290;2024-03-02T16:09:21;13.10;99.90